Time;durP1;ratioP1;P1;durP2;ratioP2;P2;SDS_P1;SDS_P2;PMS_P1;PMS_P2;Temp;Humidity;BMP_temperature;BMP_pressure;BME280_temperature;BME280_humidity;BME280_pressure;Samples;Min_cycle;Max_cycle;Signal;HPM_P1;HPM_P2
2021/10/19 00:02:01;;;;;;;30.45;19.23;;;7.80;84.90;;;;;;5073101;28;20032;-74
2021/10/19 00:04:26;;;;;;;28.73;21.02;;;7.80;84.70;;;;;;5077005;28;20041;-72
2021/10/19 00:06:52;;;;;;;28.00;19.73;;;7.80;85.20;;;;;;5082294;28;20441;-73
2021/10/19 00:09:18;;;;;;;26.70;18.98;;;7.90;84.40;;;;;;5073748;28;20044;-72
2021/10/19 00:11:44;;;;;;;25.70;19.33;;;7.90;84.20;;;;;;5054924;28;20452;-72
2021/10/19 00:14:09;;;;;;;27.33;19.67;;;7.80;84.20;;;;;;5066927;28;20463;-72
2021/10/19 00:16:35;;;;;;;26.75;19.20;;;7.80;84.50;;;;;;5074807;28;20064;-73
2021/10/19 00:19:01;;;;;;;28.40;19.88;;;7.80;85.10;;;;;;5078479;28;20058;-72
2021/10/19 00:21:27;;;;;;;26.60;18.83;;;7.70;84.60;;;;;;5060956;28;20028;-73
2021/10/19 00:23:53;;;;;;;27.83;19.83;;;7.70;84.60;;;;;;5074491;28;20078;-72
2021/10/19 00:26:19;;;;;;;27.50;19.38;;;7.70;84.70;;;;;;5067537;28;20032;-72
2021/10/19 00:28:44;;;;;;;31.02;20.50;;;7.70;84.70;;;;;;5074148;28;20024;-72
2021/10/19 00:31:10;;;;;;;30.45;19.55;;;7.70;84.90;;;;;;5080947;28;20059;-72
2021/10/19 00:33:36;;;;;;;28.95;20.35;;;7.60;85.10;;;;;;5079762;28;20158;-71
2021/10/19 00:36:01;;;;;;;31.42;19.52;;;7.60;85.10;;;;;;5083734;28;20028;-72
2021/10/19 00:38:27;;;;;;;27.50;19.42;;;7.60;85.20;;;;;;5066481;28;20035;-72
2021/10/19 00:40:53;;;;;;;29.73;21.45;;;7.60;85.20;;;;;;5072373;28;20038;-72
2021/10/19 00:43:20;;;;;;;29.42;20.13;;;7.50;85.30;;;;;;5061229;28;20051;-71
2021/10/19 00:45:46;;;;;;;30.98;20.42;;;7.40;85.70;;;;;;5063050;28;20137;-76
2021/10/19 00:48:15;;;;;;;30.40;19.85;;;7.40;86.20;;;;;;5072859;28;20482;-71
2021/10/19 00:50:41;;;;;;;27.90;19.70;;;7.40;86.50;;;;;;5072850;28;20028;-70
2021/10/19 00:53:07;;;;;;;25.75;19.63;;;7.50;86.90;;;;;;5081712;28;20470;-72
2021/10/19 00:55:33;;;;;;;26.63;19.52;;;7.50;86.90;;;;;;5072275;28;20035;-72
2021/10/19 00:58:01;;;;;;;28.80;19.17;;;7.60;86.90;;;;;;5084150;28;20111;-73
2021/10/19 01:00:27;;;;;;;28.85;18.90;;;7.70;86.80;;;;;;5059972;28;20028;-71
2021/10/19 01:02:53;;;;;;;26.70;19.10;;;7.70;86.50;;;;;;5074649;28;20028;-72
2021/10/19 01:05:20;;;;;;;29.73;19.92;;;7.80;86.20;;;;;;5074158;28;20543;-72
2021/10/19 01:07:46;;;;;;;28.67;19.30;;;7.90;86.10;;;;;;5076567;28;20025;-72
2021/10/19 01:10:12;;;;;;;29.85;19.33;;;7.90;85.90;;;;;;5092189;28;20355;-72
2021/10/19 01:12:39;;;;;;;27.65;19.73;;;8.00;85.80;;;;;;5063728;28;20036;-72
2021/10/19 01:15:17;;;;;;;29.88;19.40;;;8.00;85.40;;;;;;5061315;28;20082;-73
2021/10/19 01:17:47;;;;;;;30.98;18.67;;;8.10;85.40;;;;;;5082507;28;20103;-72
2021/10/19 01:20:18;;;;;;;28.25;19.02;;;8.10;85.10;;;;;;5076039;28;20028;-70
2021/10/19 01:22:44;;;;;;;28.85;19.30;;;8.20;85.00;;;;;;5077524;28;20030;-73
2021/10/19 01:25:11;;;;;;;27.88;18.33;;;8.20;84.70;;;;;;5095827;28;20020;-73
2021/10/19 01:27:54;;;;;;;26.75;17.33;;;8.30;84.60;;;;;;5082624;28;20028;-72
2021/10/19 01:30:21;;;;;;;26.85;17.33;;;8.30;84.40;;;;;;5085095;28;20095;-73
2021/10/19 01:32:47;;;;;;;25.42;17.45;;;8.30;84.50;;;;;;5089765;28;20497;-72
2021/10/19 01:35:13;;;;;;;24.58;17.42;;;8.30;84.50;;;;;;5078067;28;20024;-72
2021/10/19 01:37:40;;;;;;;23.17;16.90;;;8.40;84.20;;;;;;5065791;28;20024;-73
2021/10/19 01:40:12;;;;;;;27.35;16.77;;;8.40;84.30;;;;;;5073898;28;20038;-73
2021/10/19 01:42:38;;;;;;;27.15;17.27;;;8.40;84.20;;;;;;5062409;28;20382;-72
2021/10/19 01:45:11;;;;;;;21.42;15.85;;;8.40;84.10;;;;;;5095372;28;20031;-72
2021/10/19 01:47:37;;;;;;;24.25;16.13;;;8.40;83.90;;;;;;5058001;28;20024;-72
2021/10/19 01:50:03;;;;;;;23.35;16.15;;;8.40;83.70;;;;;;5082947;28;20027;-72
2021/10/19 01:52:28;;;;;;;26.30;16.80;;;8.30;83.70;;;;;;5076300;28;20490;-73
2021/10/19 01:54:54;;;;;;;22.38;15.63;;;8.30;84.10;;;;;;5095153;28;20032;-72
2021/10/19 01:57:20;;;;;;;23.20;16.38;;;8.30;84.30;;;;;;5077024;28;20028;-72
2021/10/19 01:59:45;;;;;;;24.48;17.27;;;8.20;84.20;;;;;;5057131;28;20085;-72
2021/10/19 02:02:11;;;;;;;24.52;17.55;;;8.20;84.50;;;;;;5073153;28;20024;-72
2021/10/19 02:04:37;;;;;;;22.67;16.50;;;8.10;85.00;;;;;;5086428;28;20051;-73
2021/10/19 02:07:02;;;;;;;24.30;17.13;;;8.10;85.00;;;;;;5062458;28;20037;-75
2021/10/19 02:09:28;;;;;;;27.30;17.05;;;8.10;85.10;;;;;;5082757;28;20036;-72
2021/10/19 02:11:55;;;;;;;25.48;18.35;;;8.00;85.10;;;;;;5088290;28;20043;-72
2021/10/19 02:14:21;;;;;;;25.80;18.25;;;7.90;85.40;;;;;;5085970;28;20439;-72
2021/10/19 02:16:47;;;;;;;28.92;18.73;;;7.90;85.90;;;;;;5069625;28;20056;-72
2021/10/19 02:19:13;;;;;;;28.13;19.10;;;7.80;86.30;;;;;;5056762;28;20055;-72
2021/10/19 02:21:38;;;;;;;27.70;20.33;;;7.70;86.70;;;;;;5064882;28;20558;-75
2021/10/19 02:24:04;;;;;;;31.10;19.85;;;7.70;87.10;;;;;;5069532;28;20500;-72
2021/10/19 02:26:30;;;;;;;29.33;19.20;;;7.60;87.50;;;;;;5060090;28;20029;-73
2021/10/19 02:28:55;;;;;;;27.77;19.63;;;7.60;88.10;;;;;;5076497;28;20051;-73
2021/10/19 02:31:21;;;;;;;29.88;20.38;;;7.60;88.60;;;;;;5085666;28;20482;-73
2021/10/19 02:33:47;;;;;;;28.45;18.23;;;7.50;88.90;;;;;;5074288;28;20108;-72
2021/10/19 02:36:12;;;;;;;27.48;18.63;;;7.60;89.10;;;;;;5063769;28;20028;-74
2021/10/19 02:38:38;;;;;;;27.35;19.13;;;7.60;88.70;;;;;;5073028;28;20470;-74
2021/10/19 02:41:04;;;;;;;28.75;19.48;;;7.60;88.50;;;;;;5056623;28;20394;-72
2021/10/19 02:43:29;;;;;;;28.73;19.73;;;7.60;88.80;;;;;;5064817;28;20110;-72
2021/10/19 02:45:55;;;;;;;30.20;21.05;;;7.60;88.90;;;;;;5093480;28;20028;-73
2021/10/19 02:48:21;;;;;;;29.60;20.40;;;7.60;89.10;;;;;;5068215;28;20025;-73
2021/10/19 02:50:46;;;;;;;28.75;20.63;;;7.50;89.10;;;;;;5082156;28;20035;-72
2021/10/19 02:53:12;;;;;;;29.30;20.55;;;7.50;88.90;;;;;;5074266;28;20108;-72
2021/10/19 02:55:38;;;;;;;29.85;20.08;;;7.40;88.80;;;;;;5065323;28;20028;-73
2021/10/19 02:58:04;;;;;;;29.52;20.13;;;7.30;88.80;;;;;;5094284;28;20028;-72
2021/10/19 03:00:29;;;;;;;32.25;20.05;;;7.30;89.10;;;;;;5085700;28;20031;-72
2021/10/19 03:02:56;;;;;;;33.97;20.98;;;7.20;89.40;;;;;;5084762;28;20028;-72
2021/10/19 03:05:22;;;;;;;31.75;20.65;;;7.10;89.70;;;;;;5058253;28;20144;-74
2021/10/19 03:07:47;;;;;;;34.42;20.98;;;7.10;89.90;;;;;;5075546;28;20103;-71
2021/10/19 03:10:14;;;;;;;33.17;22.40;;;7.10;90.00;;;;;;5085201;28;20028;-72
2021/10/19 03:12:40;;;;;;;31.25;21.15;;;7.10;89.90;;;;;;5076415;28;20405;-73
2021/10/19 03:15:06;;;;;;;33.60;22.90;;;7.00;90.00;;;;;;5070959;28;20033;-72
2021/10/19 03:17:32;;;;;;;35.10;23.88;;;7.00;90.00;;;;;;5081006;28;20060;-72
2021/10/19 03:19:58;;;;;;;40.92;24.85;;;6.90;90.10;;;;;;5061532;28;20438;-72
2021/10/19 03:22:24;;;;;;;36.15;24.63;;;6.80;90.30;;;;;;5062965;28;20024;-68
2021/10/19 03:24:50;;;;;;;34.75;24.15;;;6.80;90.50;;;;;;5072693;28;20021;-71
2021/10/19 03:27:15;;;;;;;35.75;23.40;;;6.70;90.70;;;;;;5073201;28;20036;-69
2021/10/19 03:29:41;;;;;;;34.65;24.55;;;6.60;91.10;;;;;;5077625;28;20520;-68
2021/10/19 03:32:07;;;;;;;37.45;24.15;;;6.50;91.50;;;;;;5055529;28;20083;-69
2021/10/19 03:34:33;;;;;;;34.42;23.58;;;6.40;91.90;;;;;;5080093;28;20118;-71
2021/10/19 03:36:59;;;;;;;35.40;24.48;;;6.40;92.20;;;;;;5075039;28;20031;-76
2021/10/19 03:39:24;;;;;;;34.13;22.88;;;6.40;92.20;;;;;;5061680;28;20106;-72
2021/10/19 03:41:50;;;;;;;40.47;25.55;;;6.40;92.10;;;;;;5089681;28;20110;-73
2021/10/19 03:44:16;;;;;;;38.10;24.80;;;6.30;92.20;;;;;;5070945;28;20036;-72
2021/10/19 03:46:42;;;;;;;33.88;24.65;;;6.40;92.30;;;;;;5062295;28;20468;-70
2021/10/19 03:49:07;;;;;;;41.03;26.80;;;6.30;92.50;;;;;;5071684;28;20619;-72
2021/10/19 03:51:33;;;;;;;38.15;26.95;;;6.30;92.70;;;;;;5072199;28;20040;-72
2021/10/19 03:53:59;;;;;;;38.95;27.30;;;6.20;92.70;;;;;;5082075;28;20028;-72
2021/10/19 03:56:24;;;;;;;37.35;27.10;;;6.20;92.70;;;;;;5093002;28;20035;-71
2021/10/19 03:58:50;;;;;;;41.60;26.23;;;6.20;92.90;;;;;;5092934;28;20028;-73
2021/10/19 04:01:16;;;;;;;41.08;27.38;;;6.20;92.90;;;;;;5089186;28;20034;-72
2021/10/19 04:03:42;;;;;;;39.75;26.95;;;6.20;92.90;;;;;;5080022;28;20052;-74
2021/10/19 04:06:09;;;;;;;43.40;27.35;;;6.20;93.00;;;;;;5065672;28;20406;-72
2021/10/19 04:08:34;;;;;;;40.72;27.55;;;6.10;93.30;;;;;;5066681;28;20020;-71
2021/10/19 04:11:00;;;;;;;40.72;28.02;;;6.00;93.20;;;;;;5075812;28;20027;-72
2021/10/19 04:13:26;;;;;;;38.05;28.20;;;6.00;93.30;;;;;;5055283;28;20029;-72
2021/10/19 04:15:52;;;;;;;42.47;28.67;;;6.00;93.50;;;;;;5061914;28;20463;-75
2021/10/19 04:18:17;;;;;;;40.65;29.05;;;5.90;93.50;;;;;;5066252;28;20044;-72
2021/10/19 04:20:43;;;;;;;42.67;28.45;;;5.90;93.60;;;;;;5084631;28;20031;-72
2021/10/19 04:23:09;;;;;;;39.60;27.48;;;5.90;93.80;;;;;;5082751;28;20454;-72
2021/10/19 04:25:34;;;;;;;41.47;27.05;;;5.90;93.90;;;;;;5068078;28;20396;-73
2021/10/19 04:28:00;;;;;;;38.88;27.63;;;5.90;93.90;;;;;;5074419;28;20042;-75
2021/10/19 04:30:26;;;;;;;42.88;28.70;;;5.90;93.90;;;;;;5075125;28;20070;-73
2021/10/19 04:32:51;;;;;;;40.17;28.75;;;5.90;93.90;;;;;;5065918;28;20040;-71
2021/10/19 04:35:17;;;;;;;40.50;28.25;;;5.80;94.10;;;;;;5078195;28;20056;-72
2021/10/19 04:37:43;;;;;;;39.30;26.30;;;5.80;94.70;;;;;;5096087;28;20039;-73
2021/10/19 04:40:09;;;;;;;37.35;25.40;;;5.90;96.60;;;;;;5077087;28;20458;-72
2021/10/19 04:42:37;;;;;;;35.85;24.25;;;6.10;97.70;;;;;;5076803;28;20098;-72
2021/10/19 04:45:04;;;;;;;35.50;24.75;;;6.40;97.90;;;;;;5084257;28;20020;-72
2021/10/19 04:47:30;;;;;;;34.65;24.00;;;6.80;97.00;;;;;;5080276;28;20020;-72
2021/10/19 04:49:58;;;;;;;31.65;23.52;;;7.20;96.00;;;;;;5092099;28;20044;-71
2021/10/19 04:52:27;;;;;;;30.27;21.40;;;7.50;94.90;;;;;;5059150;28;20080;-71
2021/10/19 04:54:54;;;;;;;33.42;22.65;;;8.00;93.30;;;;;;5074459;28;20115;-72
2021/10/19 04:57:19;;;;;;;28.95;20.65;;;8.40;91.90;;;;;;5094276;28;20035;-71
2021/10/19 04:59:45;;;;;;;31.15;20.05;;;8.80;90.50;;;;;;5064534;28;20386;-74
2021/10/19 05:02:11;;;;;;;30.60;19.52;;;9.30;88.60;;;;;;5080904;28;20090;-72
2021/10/19 05:04:37;;;;;;;28.60;18.88;;;9.60;86.20;;;;;;5066064;28;20045;-72
2021/10/19 05:07:02;;;;;;;28.30;19.80;;;10.00;84.10;;;;;;5091362;28;20028;-72
2021/10/19 05:09:28;;;;;;;27.00;18.25;;;10.40;81.80;;;;;;5074348;28;20116;-73
2021/10/19 05:11:54;;;;;;;27.52;17.83;;;10.70;80.00;;;;;;5077848;28;20463;-72
2021/10/19 05:14:20;;;;;;;28.02;17.85;;;11.10;78.30;;;;;;5057902;28;20028;-72
2021/10/19 05:16:45;;;;;;;27.20;16.83;;;11.50;77.10;;;;;;5062691;28;20102;-74
2021/10/19 05:19:11;;;;;;;27.45;16.35;;;11.90;75.90;;;;;;5087725;28;20024;-73
2021/10/19 05:21:37;;;;;;;27.50;17.63;;;12.30;74.30;;;;;;5069354;28;20023;-73
2021/10/19 05:24:03;;;;;;;23.80;15.95;;;12.70;72.90;;;;;;5077761;28;20062;-75
2021/10/19 05:26:28;;;;;;;25.98;15.70;;;13.00;71.80;;;;;;5060235;28;20116;-71
2021/10/19 05:28:54;;;;;;;23.35;16.00;;;13.30;70.00;;;;;;5094484;28;20459;-74
2021/10/19 05:31:19;;;;;;;22.73;15.45;;;13.60;69.20;;;;;;5060850;28;20067;-73
2021/10/19 05:33:45;;;;;;;21.40;14.32;;;14.00;68.10;;;;;;5084094;28;20478;-74
2021/10/19 05:36:11;;;;;;;20.48;14.40;;;14.30;66.80;;;;;;5058207;28;20386;-75
2021/10/19 05:38:37;;;;;;;24.67;14.30;;;14.70;66.00;;;;;;5067216;28;20059;-73
2021/10/19 05:41:03;;;;;;;18.75;12.98;;;15.00;65.10;;;;;;5074872;28;20391;-73
2021/10/19 05:43:29;;;;;;;21.75;13.02;;;15.30;63.80;;;;;;5065076;28;20127;-73
2021/10/19 05:45:54;;;;;;;22.23;13.38;;;15.50;62.80;;;;;;5067906;28;20439;-74
2021/10/19 05:48:20;;;;;;;21.27;12.85;;;15.80;62.40;;;;;;5065147;28;20332;-73
2021/10/19 05:50:46;;;;;;;18.60;12.20;;;16.10;61.20;;;;;;5077354;28;20030;-73
2021/10/19 05:53:12;;;;;;;23.10;13.05;;;16.00;60.00;;;;;;5054458;28;20039;-73
2021/10/19 05:55:38;;;;;;;22.25;13.93;;;15.50;59.70;;;;;;5084699;28;20032;-75
2021/10/19 05:58:04;;;;;;;22.08;13.50;;;14.90;60.30;;;;;;5062920;28;20035;-73
2021/10/19 06:00:31;;;;;;;23.63;14.27;;;14.30;62.10;;;;;;5047514;28;20120;-74
2021/10/19 06:02:57;;;;;;;21.73;14.40;;;14.00;62.20;;;;;;5069566;28;20028;-74
2021/10/19 06:05:22;;;;;;;25.60;14.00;;;14.00;63.50;;;;;;5077543;28;20076;-75
2021/10/19 06:07:50;;;;;;;21.55;14.98;;;14.10;62.60;;;;;;5068681;28;20165;-74
2021/10/19 06:10:20;;;;;;;21.05;13.90;;;14.30;62.80;;;;;;5085982;28;20055;-74
2021/10/19 06:12:45;;;;;;;20.25;13.38;;;14.80;63.50;;;;;;5081897;28;20499;-73
2021/10/19 06:15:11;;;;;;;20.33;12.57;;;15.40;62.00;;;;;;5083141;28;20036;-75
2021/10/19 06:17:37;;;;;;;20.00;13.23;;;16.00;60.50;;;;;;5079884;28;20035;-74
2021/10/19 06:20:03;;;;;;;20.95;12.13;;;16.20;58.70;;;;;;5060062;28;20031;-72
2021/10/19 06:22:30;;;;;;;18.77;11.82;;;16.40;58.40;;;;;;5076609;28;20055;-72
2021/10/19 06:24:55;;;;;;;19.05;12.90;;;16.80;57.90;;;;;;5065669;28;20397;-75
2021/10/19 06:27:21;;;;;;;20.00;13.68;;;17.10;57.40;;;;;;5065673;28;20029;-77
2021/10/19 06:29:47;;;;;;;21.23;13.23;;;17.70;56.90;;;;;;5080211;28;20417;-76
2021/10/19 06:32:12;;;;;;;20.55;11.82;;;18.20;56.10;;;;;;5066037;28;20056;-77
2021/10/19 06:34:38;;;;;;;14.52;10.30;;;18.80;55.10;;;;;;5062992;28;20032;-76
2021/10/19 06:37:04;;;;;;;13.13;8.80;;;19.20;53.50;;;;;;5072128;28;20073;-76
2021/10/19 06:39:30;;;;;;;13.98;8.85;;;19.40;52.60;;;;;;5072235;28;20481;-76
2021/10/19 06:41:55;;;;;;;11.48;8.25;;;19.60;51.60;;;;;;5082048;28;20056;-76
2021/10/19 06:44:21;;;;;;;11.07;7.85;;;19.70;50.80;;;;;;5073447;28;20039;-81
2021/10/19 06:46:48;;;;;;;9.02;6.97;;;19.80;50.30;;;;;;5084440;28;20024;-76
2021/10/19 06:49:14;;;;;;;9.57;6.72;;;19.60;49.80;;;;;;5063786;28;20028;-76
2021/10/19 06:51:40;;;;;;;8.55;6.63;;;19.60;50.30;;;;;;5062301;28;20508;-74
2021/10/19 06:54:06;;;;;;;10.73;6.93;;;19.80;49.70;;;;;;5091072;28;20181;-76
2021/10/19 06:56:32;;;;;;;9.65;7.60;;;20.00;49.30;;;;;;5067692;28;20043;-76
2021/10/19 06:58:57;;;;;;;9.48;7.32;;;20.30;48.70;;;;;;5066425;28;20024;-73
2021/10/19 07:01:23;;;;;;;10.07;7.20;;;20.50;47.90;;;;;;5060196;28;20547;-76
2021/10/19 07:03:49;;;;;;;11.43;7.03;;;20.80;47.60;;;;;;5075459;28;20432;-80
2021/10/19 07:06:14;;;;;;;9.35;6.75;;;21.10;46.80;;;;;;5072581;28;20039;-75
2021/10/19 07:08:40;;;;;;;9.80;7.47;;;21.20;46.20;;;;;;5082250;28;20028;-75
2021/10/19 07:11:07;;;;;;;8.43;6.07;;;21.10;45.80;;;;;;5065954;28;20035;-76
2021/10/19 07:13:33;;;;;;;10.13;6.57;;;21.10;45.40;;;;;;5070079;28;20059;-75
2021/10/19 07:15:59;;;;;;;10.48;6.50;;;21.10;45.20;;;;;;5063635;28;20056;-76
2021/10/19 07:18:25;;;;;;;11.48;6.00;;;21.50;45.20;;;;;;5064660;28;20089;-76
2021/10/19 07:20:52;;;;;;;8.68;6.47;;;21.80;44.30;;;;;;5074112;28;20020;-75
2021/10/19 07:23:18;;;;;;;8.73;5.78;;;22.00;44.20;;;;;;5084433;28;20028;-72
2021/10/19 07:25:45;;;;;;;11.05;6.90;;;22.30;43.90;;;;;;5085288;28;20024;-75
2021/10/19 07:28:11;;;;;;;11.00;7.10;;;22.50;43.50;;;;;;5066636;28;20079;-77
2021/10/19 07:30:37;;;;;;;9.93;6.03;;;22.70;43.30;;;;;;5087826;28;20024;-76
2021/10/19 07:33:03;;;;;;;11.55;6.80;;;23.10;42.30;;;;;;5090216;28;20036;-74
2021/10/19 07:35:29;;;;;;;10.60;6.55;;;23.50;42.00;;;;;;5081184;28;20031;-75
2021/10/19 07:37:55;;;;;;;9.73;6.82;;;23.90;41.00;;;;;;5071107;28;20455;-76
2021/10/19 07:40:21;;;;;;;10.55;6.68;;;23.80;40.30;;;;;;5071821;28;20030;-76
2021/10/19 07:42:47;;;;;;;9.57;6.35;;;23.70;39.90;;;;;;5081298;28;20118;-75
2021/10/19 07:45:14;;;;;;;13.55;6.32;;;23.60;39.80;;;;;;5057184;28;20445;-75
2021/10/19 07:47:44;;;;;;;12.52;7.68;;;23.50;39.50;;;;;;5073955;28;20093;-75
2021/10/19 07:50:11;;;;;;;9.40;6.45;;;23.40;39.80;;;;;;5084402;28;20032;-75
2021/10/19 07:52:37;;;;;;;9.30;5.95;;;23.60;39.50;;;;;;5092729;28;20036;-75
2021/10/19 07:55:04;;;;;;;8.20;6.10;;;23.50;39.10;;;;;;5066026;28;20031;-76
2021/10/19 07:57:30;;;;;;;8.75;5.78;;;23.50;39.10;;;;;;5066769;28;20028;-76
2021/10/19 07:59:56;;;;;;;8.55;5.70;;;23.50;38.70;;;;;;5092859;28;20042;-76
2021/10/19 08:02:21;;;;;;;7.53;5.10;;;23.50;38.70;;;;;;5081415;28;20035;-75
2021/10/19 08:04:47;;;;;;;8.65;5.50;;;23.50;38.40;;;;;;5078427;28;20040;-76
2021/10/19 08:07:13;;;;;;;8.43;5.68;;;23.90;38.80;;;;;;5093101;28;20044;-76
2021/10/19 08:09:38;;;;;;;8.55;5.68;;;24.30;38.00;;;;;;5062834;28;20025;-79
2021/10/19 08:12:04;;;;;;;9.88;5.55;;;24.40;37.40;;;;;;5089223;28;20032;-76
2021/10/19 08:14:30;;;;;;;7.18;3.85;;;24.50;37.10;;;;;;5081536;28;20033;-76
2021/10/19 08:16:56;;;;;;;8.52;3.92;;;24.50;35.70;;;;;;5079915;28;20462;-80
2021/10/19 08:19:22;;;;;;;7.38;3.83;;;24.40;35.70;;;;;;5056741;28;20119;-76
2021/10/19 08:21:47;;;;;;;5.78;3.50;;;24.30;35.40;;;;;;5062921;28;20048;-76
2021/10/19 08:24:13;;;;;;;5.75;2.95;;;24.30;35.80;;;;;;5055517;28;20033;-76
2021/10/19 08:26:39;;;;;;;4.72;3.00;;;24.50;34.70;;;;;;5055286;28;20095;-77
2021/10/19 08:29:04;;;;;;;7.07;2.67;;;24.60;34.40;;;;;;5080280;28;20069;-77
2021/10/19 08:31:31;;;;;;;7.10;3.00;;;24.80;34.00;;;;;;5089454;28;20390;-77
2021/10/19 08:33:58;;;;;;;7.05;3.10;;;24.50;34.10;;;;;;5078961;28;20024;-77
2021/10/19 08:36:24;;;;;;;5.57;2.88;;;24.00;33.60;;;;;;5091028;28;20032;-75
2021/10/19 08:38:50;;;;;;;5.45;2.80;;;23.70;34.10;;;;;;5087430;28;20441;-80
2021/10/19 08:41:17;;;;;;;4.55;2.90;;;23.70;34.10;;;;;;5072924;28;20445;-79
2021/10/19 08:43:45;;;;;;;6.78;2.50;;;24.00;34.70;;;;;;5089075;28;20028;-77
2021/10/19 08:46:13;;;;;;;4.70;2.40;;;24.20;33.70;;;;;;5072761;28;20021;-76
2021/10/19 08:48:40;;;;;;;5.50;2.70;;;24.50;33.70;;;;;;5083548;28;20103;-75
2021/10/19 08:51:07;;;;;;;3.53;2.50;;;24.50;33.40;;;;;;5083521;28;20029;-77
2021/10/19 08:53:37;;;;;;;4.75;2.50;;;24.50;33.60;;;;;;5074101;28;20032;-77
2021/10/19 08:56:04;;;;;;;6.07;2.67;;;24.70;33.80;;;;;;5060355;28;20021;-77
2021/10/19 08:58:30;;;;;;;5.00;2.83;;;24.90;33.80;;;;;;5089635;28;20030;-76
2021/10/19 09:01:07;;;;;;;6.60;2.90;;;24.60;33.30;;;;;;5092360;28;20039;-81
2021/10/19 09:03:33;;;;;;;5.65;2.97;;;23.60;33.50;;;;;;5081874;28;20056;-77
2021/10/19 09:06:00;;;;;;;4.43;3.10;;;22.70;34.50;;;;;;5085228;28;20032;-77
2021/10/19 09:08:26;;;;;;;5.50;3.05;;;21.70;35.10;;;;;;5091438;28;20028;-73
2021/10/19 09:10:53;;;;;;;5.90;2.70;;;21.10;36.60;;;;;;5066687;28;20028;-76
2021/10/19 09:13:19;;;;;;;5.65;3.33;;;21.40;37.40;;;;;;5066323;28;20045;-72
2021/10/19 09:15:47;;;;;;;6.45;3.17;;;21.70;36.50;;;;;;5060062;28;20486;-76
2021/10/19 09:18:17;;;;;;;5.32;3.03;;;21.70;37.20;;;;;;5089276;28;20438;-77
2021/10/19 09:20:46;;;;;;;4.40;2.60;;;22.30;36.80;;;;;;5065525;28;20028;-74
2021/10/19 09:23:14;;;;;;;5.65;2.53;;;22.70;36.00;;;;;;5066170;28;20387;-75
2021/10/19 09:25:42;;;;;;;4.20;2.58;;;22.70;35.10;;;;;;5066256;28;20156;-75
2021/10/19 09:28:12;;;;;;;5.20;2.67;;;22.40;34.40;;;;;;5089565;28;20493;-76
2021/10/19 09:30:46;;;;;;;5.50;2.67;;;21.60;35.10;;;;;;5075848;28;20449;-76
2021/10/19 09:33:14;;;;;;;4.78;2.55;;;21.10;36.20;;;;;;5076268;28;20492;-75
2021/10/19 09:35:41;;;;;;;5.60;2.75;;;21.50;36.30;;;;;;5083725;28;20032;-76
2021/10/19 09:38:10;;;;;;;6.82;2.60;;;21.50;36.30;;;;;;5065913;28;20032;-76
2021/10/19 09:40:38;;;;;;;4.05;2.42;;;21.40;36.00;;;;;;5084342;28;20498;-81
2021/10/19 09:43:06;;;;;;;5.47;2.40;;;20.90;36.00;;;;;;5076632;28;20034;-75
2021/10/19 09:45:34;;;;;;;4.68;1.95;;;20.70;36.40;;;;;;5076818;28;20032;-76
2021/10/19 09:48:00;;;;;;;4.32;2.20;;;21.10;36.10;;;;;;5083190;28;20016;-76
2021/10/19 09:50:28;;;;;;;3.72;2.20;;;21.50;36.00;;;;;;5082639;28;20383;-76
2021/10/19 09:52:55;;;;;;;3.90;2.25;;;22.00;35.80;;;;;;5083758;28;20473;-76
2021/10/19 09:55:22;;;;;;;4.20;1.90;;;22.60;35.50;;;;;;5057565;28;20025;-75
2021/10/19 09:57:51;;;;;;;4.93;2.25;;;23.10;35.00;;;;;;5065367;28;20028;-77
2021/10/19 10:00:17;;;;;;;4.30;1.90;;;23.30;34.50;;;;;;5063082;28;20397;-81
2021/10/19 10:02:44;;;;;;;3.78;2.13;;;23.60;34.00;;;;;;5067626;28;20032;-75
2021/10/19 10:05:11;;;;;;;3.35;2.00;;;23.60;33.80;;;;;;5065440;28;20068;-76
2021/10/19 10:07:40;;;;;;;5.75;2.60;;;23.60;33.70;;;;;;5075302;28;20082;-80
2021/10/19 10:10:08;;;;;;;4.28;1.90;;;23.60;33.60;;;;;;5079228;28;20098;-77
2021/10/19 10:12:34;;;;;;;3.63;1.90;;;23.70;33.50;;;;;;5076879;28;20035;-76
2021/10/19 10:15:01;;;;;;;5.20;2.20;;;23.80;33.10;;;;;;5077799;28;20142;-76
2021/10/19 10:17:26;;;;;;;4.13;2.03;;;23.80;32.80;;;;;;5068449;28;20036;-76
2021/10/19 10:19:53;;;;;;;5.32;2.15;;;23.80;32.80;;;;;;5078008;28;20040;-76
2021/10/19 10:22:28;;;;;;;4.22;2.25;;;23.80;33.60;;;;;;5081807;28;20062;-75
2021/10/19 10:25:14;;;;;;;4.30;2.08;;;24.10;33.70;;;;;;5092780;28;20028;-77
2021/10/19 10:27:40;;;;;;;4.50;2.10;;;24.30;32.70;;;;;;5068491;28;20033;-75
2021/10/19 10:30:24;;;;;;;5.32;2.58;;;24.40;32.20;;;;;;5074894;28;20039;-77
2021/10/19 10:32:50;;;;;;;4.13;1.60;;;24.30;32.00;;;;;;5063951;28;20110;-77
2021/10/19 10:35:18;;;;;;;4.25;1.85;;;24.10;31.70;;;;;;5069121;28;20055;-82
2021/10/19 10:37:55;;;;;;;3.80;2.03;;;23.90;31.90;;;;;;5075429;28;20035;-75
2021/10/19 10:40:38;;;;;;;3.47;1.60;;;23.60;33.30;;;;;;5094730;28;20036;-75
2021/10/19 10:43:16;;;;;;;4.50;1.85;;;24.00;32.90;;;;;;5085638;28;20028;-76
2021/10/19 10:45:42;;;;;;;4.80;2.00;;;24.30;32.70;;;;;;5086400;28;20031;-77
2021/10/19 10:48:07;;;;;;;3.08;1.67;;;24.50;32.50;;;;;;5077521;28;20040;-76
2021/10/19 10:50:36;;;;;;;2.75;1.55;;;24.60;32.20;;;;;;5075911;28;20560;-77
2021/10/19 10:53:10;;;;;;;5.45;1.50;;;24.70;31.70;;;;;;5059508;28;20559;-76
2021/10/19 10:55:38;;;;;;;2.85;1.40;;;24.10;30.80;;;;;;5079394;28;20090;-76
2021/10/19 10:58:04;;;;;;;2.00;1.30;;;23.80;30.80;;;;;;5065028;28;20398;-76
2021/10/19 11:00:30;;;;;;;3.38;1.40;;;23.70;30.90;;;;;;5067937;28;20449;-82
2021/10/19 11:03:16;;;;;;;2.97;1.27;;;23.50;30.80;;;;;;5067286;28;20039;-77
2021/10/19 11:05:58;;;;;;;2.88;1.50;;;23.50;31.40;;;;;;5065349;28;20040;-75
2021/10/19 11:08:29;;;;;;;2.70;1.48;;;23.60;31.70;;;;;;5093627;28;20093;-75
2021/10/19 11:11:25;;;;;;;4.03;1.50;;;23.50;31.30;;;;;;5085409;28;20371;-76
2021/10/19 11:14:01;;;;;;;4.70;1.60;;;23.60;31.60;;;;;;5059768;28;20036;-76
2021/10/19 11:16:52;;;;;;;1.27;0.95;;;23.60;32.40;;;;;;5074111;28;20055;-75
2021/10/19 11:19:29;;;;;;;4.75;2.38;;;23.70;31.70;;;;;;5053884;28;20044;-79
2021/10/19 11:22:01;;;;;;;5.63;2.70;;;23.90;31.30;;;;;;5071641;28;20036;-76
2021/10/19 11:24:30;;;;;;;3.08;1.60;;;24.10;30.80;;;;;;5065915;28;20024;-75
2021/10/19 11:26:56;;;;;;;7.03;2.90;;;24.20;29.90;;;;;;5080736;28;20110;-76
2021/10/19 11:29:23;;;;;;;3.38;1.38;;;24.30;29.60;;;;;;5066720;28;20126;-75
2021/10/19 11:31:51;;;;;;;4.78;1.30;;;24.10;29.50;;;;;;5075237;28;20051;-82
2021/10/19 11:34:17;;;;;;;2.58;1.30;;;23.90;30.10;;;;;;5058878;28;20105;-72
2021/10/19 11:36:43;;;;;;;5.85;1.60;;;23.80;30.20;;;;;;5066857;28;20466;-76
2021/10/19 11:39:11;;;;;;;5.85;1.42;;;23.50;30.10;;;;;;5057994;28;20028;-76
2021/10/19 11:41:39;;;;;;;3.97;1.27;;;23.40;30.00;;;;;;5085708;28;20020;-76
2021/10/19 11:44:06;;;;;;;3.47;1.10;;;23.10;30.00;;;;;;5084434;28;20031;-80
2021/10/19 11:46:37;;;;;;;4.30;1.40;;;22.90;30.00;;;;;;5059122;28;20028;-75
2021/10/19 11:49:16;;;;;;;3.75;1.23;;;22.80;30.00;;;;;;5059476;28;20390;-75
2021/10/19 11:51:50;;;;;;;3.03;1.30;;;22.60;30.50;;;;;;5053528;28;20130;-74
2021/10/19 11:54:17;;;;;;;3.22;1.35;;;22.50;30.40;;;;;;5073960;28;20139;-82
2021/10/19 11:57:02;;;;;;;2.70;1.33;;;22.30;30.70;;;;;;5084911;28;20377;-75
2021/10/19 11:59:38;;;;;;;1.87;1.40;;;22.00;31.20;;;;;;5066741;28;20025;-75
2021/10/19 12:02:07;;;;;;;6.18;2.45;;;21.90;31.60;;;;;;5084495;28;20266;-75
2021/10/19 12:04:43;;;;;;;4.57;1.80;;;21.70;31.10;;;;;;5065929;28;20435;-76
2021/10/19 12:07:10;;;;;;;3.35;1.30;;;21.50;31.00;;;;;;5075322;28;20089;-76
2021/10/19 12:09:36;;;;;;;3.33;1.58;;;21.10;30.50;;;;;;5063667;28;20025;-80
2021/10/19 12:12:04;;;;;;;3.50;1.27;;;20.70;30.80;;;;;;5087424;28;20044;-76
2021/10/19 12:14:31;;;;;;;3.15;1.30;;;20.30;31.90;;;;;;5071986;28;20039;-76
2021/10/19 12:17:03;;;;;;;3.85;1.20;;;19.80;31.80;;;;;;5086701;28;20028;-76
2021/10/19 12:19:30;;;;;;;2.45;1.30;;;19.50;31.80;;;;;;5084686;28;20028;-75
2021/10/19 12:22:00;;;;;;;3.28;1.33;;;19.00;31.90;;;;;;5087047;28;20041;-80
2021/10/19 12:24:26;;;;;;;1.67;1.20;;;18.60;33.30;;;;;;5070706;28;20036;-76
2021/10/19 12:27:07;;;;;;;4.72;1.98;;;18.40;33.90;;;;;;5086163;28;20392;-75
2021/10/19 12:29:34;;;;;;;4.18;1.75;;;18.20;33.90;;;;;;5072611;28;20028;-75
2021/10/19 12:32:01;;;;;;;3.20;1.33;;;17.80;34.30;;;;;;5068832;28;20059;-76
2021/10/19 12:34:28;;;;;;;4.20;1.80;;;17.40;34.50;;;;;;5082832;28;20024;-75
2021/10/19 12:37:01;;;;;;;2.95;1.45;;;16.70;35.00;;;;;;5081466;28;20374;-75
2021/10/19 12:39:27;;;;;;;4.43;1.45;;;16.10;35.80;;;;;;5056117;28;20111;-75
2021/10/19 12:41:55;;;;;;;3.45;1.60;;;15.70;35.60;;;;;;5092626;28;20450;-75